Bayonet Point, Florida
Current Conditions -  °F | °C
As of 11:53 AM on Thursday 30 Oct 2014 (Local Time) from KBKV Reporting Station
Broken Clouds Broken Clouds  
Wind Chill: 77°   Ceiling: 12000
Heat Index: 79°   Visibility: 10mi
Dew Point: 63°   Wind: 5mph
Humidity: 62%   Direction: 10°N
Pressure: 30.01"   Gusts: NA
Location:  28.33°N, 82.7°W
Report Text: KBKV 301553Z 01004KT 10SM SCT100 BKN120 25/17 A3001 RMK AO2 SLP159 T02500172
Loading
Personal Weather Stations






























Interactive Weather Map
Tropical Storm Tracking
New forecast layout! Learn more

10-Day Weather Forecast

Advertisements
Track Severe Weather on mobile